METAR Data
IDs: Format: Raw Decoded Include TAF

Data at: 0524 UTC 03 Jul 2022

KWVI 030453Z AUTO 10005KT 10SM CLR 13/11 A3001 RMK AO2 SLP160 T01280106

KSNS 030453Z AUTO 25010KT 10SM FEW015 OVC021 16/11 A3001 RMK AO2 SLP172 T01560106 TSNO

KMRY 030508Z AUTO 25009KT 10SM BKN015 OVC023 15/11 A3004 RMK AO2 T01500106

KSJC 030453Z 32012KT 10SM BKN022 16/10 A3001 RMK AO2 SLP163 T01560100

KSFO 030456Z 27013KT 10SM FEW004 BKN011 OVC019 15/11 A3000 RMK AO2 SLP158 T01500111

KHAF 030515Z AUTO 30007KT 7SM OVC019 13/13 A3002 RMK AO2